createdAt,value
2023-04-18T00:01:24.990Z,100151.53
2023-04-18T00:06:27.132Z,100173.06
2023-04-18T00:11:30.289Z,100164.31
2023-04-18T00:16:33.417Z,100167.56
2023-04-18T00:21:37.215Z,100172.44
2023-04-18T00:26:39.302Z,100164.50
2023-04-18T00:31:41.383Z,100176.75
2023-04-18T00:36:43.486Z,100178.41
2023-04-18T00:41:45.686Z,100168.56
2023-04-18T00:46:48.346Z,100180.03
2023-04-18T00:51:51.568Z,100162.63
2023-04-18T00:56:53.894Z,100182.22
2023-04-18T01:01:56.106Z,100168.34
2023-04-18T01:06:58.628Z,100170.53
2023-04-18T01:12:01.873Z,100171.06
2023-04-18T01:17:03.937Z,100162.91
2023-04-18T01:22:07.187Z,100162.91
2023-04-18T01:27:13.400Z,100158.00
2023-04-18T01:32:17.660Z,100162.63
2023-04-18T01:37:19.751Z,100155.84
2023-04-18T01:42:21.905Z,100166.50
2023-04-18T01:47:24.073Z,100154.75
2023-04-18T01:52:27.949Z,100174.09
2023-04-18T01:57:30.839Z,100176.50
2023-04-18T02:02:33.119Z,100169.16
2023-04-18T02:07:35.348Z,100166.72
2023-04-18T02:12:37.431Z,100168.34
2023-04-18T02:17:39.658Z,100167.28
2023-04-18T02:22:41.795Z,100169.16
2023-04-18T02:27:44.052Z,100176.50
2023-04-18T02:32:46.907Z,100172.97
2023-04-18T02:37:49.435Z,100181.12
2023-04-18T02:42:51.495Z,100177.88
2023-04-18T02:47:56.186Z,100181.12
2023-04-18T02:52:58.667Z,100175.41
2023-04-18T02:58:00.752Z,100173.22
2023-04-18T03:03:02.947Z,100184.41
2023-04-18T03:08:05.304Z,100194.75
2023-04-18T03:13:07.389Z,100178.41
2023-04-18T03:18:09.528Z,100196.37
2023-04-18T03:23:11.597Z,100194.47
2023-04-18T03:28:13.664Z,100199.63
2023-04-18T03:33:17.131Z,100190.34
2023-04-18T03:38:19.649Z,100208.03
2023-04-18T03:43:21.748Z,100197.41
2023-04-18T03:48:23.876Z,100208.81
2023-04-18T03:53:25.997Z,100202.56
2023-04-18T03:58:28.084Z,100215.03
2023-04-18T04:03:30.206Z,100204.62
2023-04-18T04:08:32.400Z,100220.47
2023-04-18T04:13:34.556Z,100210.84
2023-04-18T04:18:36.638Z,100220.28
2023-04-18T04:23:38.755Z,100227.84
2023-04-18T04:28:42.814Z,100242.22
2023-04-18T04:33:45.016Z,100246.03
2023-04-18T04:38:47.277Z,100243.31
2023-04-18T04:43:51.153Z,100246.50
2023-04-18T04:48:54.443Z,100240.25
2023-04-18T04:53:56.540Z,100259.84
2023-04-18T04:58:58.684Z,100258.97
2023-04-18T05:04:00.978Z,100257.63
2023-04-18T05:09:03.212Z,100257.06
2023-04-18T05:14:05.411Z,100251.38
2023-04-18T05:19:07.508Z,100255.22
2023-04-18T05:24:09.938Z,100267.28
2023-04-18T05:29:12.131Z,100273.03
2023-04-18T05:34:14.476Z,100280.13
2023-04-18T05:39:17.042Z,100284.56
2023-04-18T05:44:19.942Z,100278.94
2023-04-18T05:49:22.192Z,100274.09
2023-04-18T05:54:27.590Z,100272.88
2023-04-18T05:59:29.824Z,100287.87
2023-04-18T06:04:32.083Z,100268.03
2023-04-18T06:09:34.409Z,100286.06
2023-04-18T06:14:36.572Z,100293.75
2023-04-18T06:19:39.620Z,100289.13
2023-04-18T06:24:41.705Z,100287.75
2023-04-18T06:29:44.012Z,100298.66
2023-04-18T06:34:46.076Z,100304.91
2023-04-18T06:39:48.221Z,100303.03
2023-04-18T06:44:50.678Z,100297.63
2023-04-18T06:49:52.748Z,100307.97
2023-04-18T06:54:54.816Z,100308.47
2023-04-18T06:59:56.890Z,100310.59
2023-04-18T07:04:58.998Z,100303.47
2023-04-18T07:10:01.561Z,100315.66
2023-04-18T07:15:04.887Z,100316.69
2023-04-18T07:20:07.672Z,100299.28
2023-04-18T07:25:09.909Z,100312.56
2023-04-18T07:30:12.376Z,100318.03
2023-04-18T07:35:14.448Z,100325.88
2023-04-18T07:40:17.087Z,100331.22
2023-04-18T07:45:19.213Z,100324.94
2023-04-18T07:50:21.376Z,100330.38
2023-04-18T07:55:23.934Z,100338.41
2023-04-18T08:00:26.553Z,100348.25
2023-04-18T08:05:28.908Z,100339.31
2023-04-18T08:10:31.045Z,100353.47
2023-04-18T08:15:33.190Z,100346.88
2023-04-18T08:20:37.298Z,100356.34
2023-04-18T08:25:39.416Z,100349.34
2023-04-18T08:30:42.378Z,100351.16
2023-04-18T08:35:44.552Z,100362.03
2023-04-18T08:40:47.150Z,100353.09
2023-04-18T08:45:49.277Z,100365.25
2023-04-18T08:50:57.335Z,100359.78
2023-04-18T08:56:00.384Z,100352.84
2023-04-18T09:01:02.499Z,100371.88
2023-04-18T09:06:13.857Z,100372.53
2023-04-18T09:11:28.825Z,100358.72
2023-04-18T09:16:47.012Z,100367.28
2023-04-18T09:21:58.164Z,100358.81
2023-04-18T09:27:01.255Z,100370.66
2023-04-18T09:32:03.415Z,100362.22
2023-04-18T09:37:07.801Z,100373.72
2023-04-18T09:42:14.464Z,100360.06
2023-04-18T09:47:16.548Z,100366.28
2023-04-18T09:52:19.793Z,100367.81
2023-04-18T09:57:22.548Z,100356.22
2023-04-18T10:02:28.782Z,100353.06
2023-04-18T10:07:32.517Z,100357.88
2023-04-18T10:12:36.920Z,100361.25
2023-04-18T10:18:04.200Z,100341.91
2023-04-18T10:23:36.091Z,100350.97
2023-04-18T10:28:54.760Z,100348.19
2023-04-18T10:39:25.621Z,100356.38
2023-04-18T10:44:27.978Z,100354.22
2023-04-18T10:49:32.851Z,100342.09
2023-04-18T10:54:47.263Z,100350.91
2023-04-18T10:59:51.846Z,100335.81
2023-04-18T11:04:56.248Z,100330.59
2023-04-18T11:09:58.411Z,100329.88
2023-04-18T11:15:02.669Z,100333.62
2023-04-18T11:20:13.729Z,100336.34
2023-04-18T11:25:17.093Z,100338.94
2023-04-18T11:30:19.348Z,100353.50
2023-04-18T11:35:21.502Z,100344.06
2023-04-18T11:40:23.689Z,100338.06
2023-04-18T11:45:25.905Z,100333.78
2023-04-18T11:50:28.078Z,100330.28
2023-04-18T11:55:30.289Z,100324.84
2023-04-18T12:00:41.683Z,100337.25
2023-04-18T12:05:44.171Z,100321.47
2023-04-18T12:10:48.227Z,100328.03
2023-04-18T12:15:50.561Z,100321.66
2023-04-18T12:20:54.487Z,100330.47
2023-04-18T12:26:01.439Z,100324.69
2023-04-18T12:31:07.700Z,100328.06
2023-04-18T12:36:10.506Z,100316.19
2023-04-18T12:41:12.697Z,100323.38
2023-04-18T12:46:14.856Z,100327.34
2023-04-18T12:51:17.293Z,100330.12
2023-04-18T12:56:19.379Z,100341.44
2023-04-18T13:01:22.050Z,100327.03
2023-04-18T13:06:24.618Z,100327.41
2023-04-18T13:11:28.640Z,100322.47
2023-04-18T13:16:31.208Z,100328.81
2023-04-18T13:21:33.466Z,100332.47
2023-04-18T13:26:37.504Z,100331.16
2023-04-18T13:31:39.709Z,100337.38
2023-04-18T13:36:41.902Z,100331.72
2023-04-18T13:41:44.580Z,100327.56
2023-04-18T13:46:46.814Z,100340.03
2023-04-18T13:51:50.565Z,100339.06
2023-04-18T13:56:57.488Z,100338.16
2023-04-18T14:01:59.763Z,100333.03
2023-04-18T14:07:03.492Z,100325.53
2023-04-18T14:12:06.091Z,100332.53
2023-04-18T14:17:08.188Z,100323.53
2023-04-18T14:22:10.637Z,100317.41
2023-04-18T14:27:12.818Z,100308.50
2023-04-18T14:32:14.977Z,100321.97
2023-04-18T14:37:17.810Z,100319.47
2023-04-18T14:42:19.978Z,100317.34
2023-04-18T14:47:24.365Z,100323.16
2023-04-18T14:52:26.619Z,100325.81
2023-04-18T14:57:31.713Z,100328.25
2023-04-18T15:02:33.999Z,100329.56
2023-04-18T15:07:37.924Z,100321.75
2023-04-18T15:12:40.122Z,100315.91
2023-04-18T15:17:42.262Z,100311.34
2023-04-18T15:22:44.393Z,100308.84
2023-04-18T15:27:46.486Z,100313.34
2023-04-18T15:32:48.706Z,100315.09
2023-04-18T15:37:51.660Z,100313.09
2023-04-18T15:42:54.503Z,100298.94
2023-04-18T15:47:56.987Z,100319.63
2023-04-18T15:52:59.125Z,100318.16
2023-04-18T15:58:01.598Z,100317.31
2023-04-18T16:03:04.867Z,100313.31
2023-04-18T16:08:09.530Z,100318.19
2023-04-18T16:13:11.647Z,100324.87
2023-04-18T16:18:13.765Z,100308.16
2023-04-18T16:23:15.831Z,100326.56
2023-04-18T16:28:17.895Z,100314.87
2023-04-18T16:33:24.499Z,100331.97
2023-04-18T16:38:27.435Z,100315.41
2023-04-18T16:43:31.077Z,100325.06
2023-04-18T16:48:33.202Z,100322.09
2023-04-18T16:53:36.076Z,100329.81
2023-04-18T16:58:38.125Z,100324.53
2023-04-18T17:03:40.354Z,100325.41
2023-04-18T17:08:42.597Z,100321.00
2023-04-18T17:13:44.679Z,100344.41
2023-04-18T17:18:46.852Z,100335.19
2023-04-18T17:23:48.999Z,100337.62
2023-04-18T17:28:51.362Z,100351.00
2023-04-18T17:33:54.574Z,100339.94
2023-04-18T17:38:58.268Z,100356.25
2023-04-18T17:44:00.583Z,100362.09
2023-04-18T17:49:02.794Z,100356.44
2023-04-18T17:54:05.503Z,100364.09
2023-04-18T17:59:07.670Z,100361.19
2023-04-18T18:04:09.862Z,100353.78
2023-04-18T18:09:12.916Z,100359.72
2023-04-18T18:14:15.714Z,100364.66
2023-04-18T18:19:17.908Z,100380.84
2023-04-18T18:24:20.101Z,100375.00
2023-04-18T18:29:22.301Z,100383.97
2023-04-18T18:34:24.410Z,100375.81
2023-04-18T18:39:26.534Z,100388.59
2023-04-18T18:44:28.680Z,100381.22
2023-04-18T18:49:30.968Z,100382.87
2023-04-18T18:54:33.053Z,100391.91
2023-04-18T18:59:35.193Z,100400.91
2023-04-18T19:04:37.805Z,100401.19
2023-04-18T19:09:39.979Z,100396.31
2023-04-18T19:14:42.515Z,100420.88
2023-04-18T19:19:44.598Z,100432.59
2023-04-18T19:24:46.963Z,100434.53
2023-04-18T19:29:49.091Z,100435.91
2023-04-18T19:34:51.488Z,100434.63
2023-04-18T19:39:53.581Z,100433.00
2023-04-18T19:44:56.488Z,100436.84
2023-04-18T19:49:58.608Z,100454.59
2023-04-18T19:55:00.681Z,100453.53
2023-04-18T20:00:02.940Z,100450.53
2023-04-18T20:05:06.420Z,100461.16
2023-04-18T20:10:09.097Z,100453.56
2023-04-18T20:15:11.875Z,100464.75
2023-04-18T20:20:14.093Z,100470.78
2023-04-18T20:25:16.468Z,100456.56
2023-04-18T20:30:18.617Z,100466.38
2023-04-18T20:35:20.816Z,100443.47
2023-04-18T20:40:23.016Z,100454.91
2023-04-18T20:45:25.319Z,100460.69
2023-04-18T20:50:27.888Z,100457.41
2023-04-18T20:55:29.992Z,100457.44
2023-04-18T21:00:32.069Z,100464.25
2023-04-18T21:05:34.234Z,100459.88
2023-04-18T21:10:36.393Z,100470.78
2023-04-18T21:15:38.645Z,100461.25
2023-04-18T21:20:40.701Z,100459.62
2023-04-18T21:25:42.828Z,100453.63
2023-04-18T21:30:44.918Z,100447.88
2023-04-18T21:35:46.977Z,100439.97
2023-04-18T21:40:49.035Z,100453.59
2023-04-18T21:45:51.132Z,100442.69
2023-04-18T21:50:56.582Z,100432.34
2023-04-18T21:55:58.687Z,100426.84
2023-04-18T22:01:01.183Z,100428.22
2023-04-18T22:06:03.378Z,100446.50
2023-04-18T22:11:05.559Z,100431.75
2023-04-18T22:16:09.349Z,100441.84
2023-04-18T22:21:11.770Z,100424.66
2023-04-18T22:26:13.958Z,100435.28
2023-04-18T22:31:16.163Z,100436.38
2023-04-18T22:36:18.231Z,100419.47
2023-04-18T22:41:20.413Z,100412.63
2023-04-18T22:46:22.770Z,100418.09
2023-04-18T22:51:24.862Z,100409.09
2023-04-18T22:56:26.938Z,100394.59
2023-04-18T23:01:29.098Z,100385.91
2023-04-18T23:06:31.526Z,100382.63
2023-04-18T23:11:33.569Z,100397.06
2023-04-18T23:16:35.645Z,100375.25
2023-04-18T23:21:37.681Z,100381.25
2023-04-18T23:26:39.726Z,100385.91
2023-04-18T23:31:41.844Z,100360.50
2023-04-18T23:36:43.933Z,100359.44
2023-04-18T23:41:45.984Z,100358.34
2023-04-18T23:46:48.476Z,100356.16
2023-04-18T23:51:50.606Z,100345.53
2023-04-18T23:56:52.765Z,100341.19
